Map

Track Data

SID SEASON NUMBER BASIN SUBBASIN NAME ISO_TIME NATURE LAT LON WMO_WIND WMO_PRES WMO_AGENCY TRACK_TYPE DIST2LAND LANDFALL IFLAG USA_AGENCY USA_ATCF_ID USA_LAT USA_LON USA_RECORD USA_STATUS USA_WIND USA_PRES USA_SSHS USA_R34_NE USA_R34_SE USA_R34_SW USA_R34_NW USA_R50_NE USA_R50_SE USA_R50_SW USA_R50_NW USA_R64_NE USA_R64_SE USA_R64_SW USA_R64_NW USA_POCI USA_ROCI USA_RMW USA_EYE TOKYO_LAT TOKYO_LON TOKYO_GRADE TOKYO_WIND TOKYO_PRES TOKYO_R50_DIR TOKYO_R50_LONG TOKYO_R50_SHORT TOKYO_R30_DIR TOKYO_R30_LONG TOKYO_R30_SHORT TOKYO_LAND CMA_LAT CMA_LON CMA_CAT CMA_WIND CMA_PRES HKO_LAT HKO_LON HKO_CAT HKO_WIND HKO_PRES NEWDELHI_LAT NEWDELHI_LON NEWDELHI_GRADE NEWDELHI_WIND NEWDELHI_PRES NEWDELHI_CI NEWDELHI_DP NEWDELHI_POCI REUNION_LAT REUNION_LON REUNION_TYPE REUNION_WIND REUNION_PRES REUNION_TNUM REUNION_CI REUNION_RMW REUNION_R34_NE REUNION_R34_SE REUNION_R34_SW REUNION_R34_NW REUNION_R50_NE REUNION_R50_SE REUNION_R50_SW REUNION_R50_NW REUNION_R64_NE REUNION_R64_SE REUNION_R64_SW REUNION_R64_NW BOM_LAT BOM_LON BOM_TYPE BOM_WIND BOM_PRES BOM_TNUM BOM_CI BOM_RMW BOM_R34_NE BOM_R34_SE BOM_R34_SW BOM_R34_NW BOM_R50_NE BOM_R50_SE BOM_R50_SW BOM_R50_NW BOM_R64_NE BOM_R64_SE BOM_R64_SW BOM_R64_NW BOM_ROCI BOM_POCI BOM_EYE BOM_POS_METHOD BOM_PRES_METHOD NADI_LAT NADI_LON NADI_CAT NADI_WIND NADI_PRES WELLINGTON_LAT WELLINGTON_LON WELLINGTON_WIND WELLINGTON_PRES DS824_LAT DS824_LON DS824_STAGE DS824_WIND DS824_PRES TD9636_LAT TD9636_LON TD9636_STAGE TD9636_WIND TD9636_PRES TD9635_LAT TD9635_LON TD9635_WIND TD9635_PRES TD9635_ROCI NEUMANN_LAT NEUMANN_LON NEUMANN_CLASS NEUMANN_WIND NEUMANN_PRES MLC_LAT MLC_LON MLC_CLASS MLC_WIND MLC_PRES USA_GUST BOM_GUST BOM_GUST_PER REUNION_GUST REUNION_GUST_PER USA_SEAHGT USA_SEARAD_NE USA_SEARAD_SE USA_SEARAD_SW USA_SEARAD_NW STORM_SPEED STORM_DIR
1892010S11056 1892 2 SI MM NOT_NAMED 1892-01-10 00:00:00 TS -10.9000 56.2000 main 724 700 _________O____ -1 -10.9000 56.2000 TC 4 243
1892010S11056 1892 2 SI MM NOT_NAMED 1892-01-10 03:00:00 TS -10.9975 56.0025 main 700 676 _________P____ -1 -10.9975 56.0025 TC 4 243
1892010S11056 1892 2 SI MM NOT_NAMED 1892-01-10 06:00:00 TS -11.1000 55.8000 main 676 652 _________O____ -1 -11.1000 55.8000 TC 5 242
1892010S11056 1892 2 SI MM NOT_NAMED 1892-01-10 09:00:00 TS -11.2075 55.5925 main 652 627 _________P____ -1 -11.2075 55.5925 TC 4 243
1892010S11056 1892 2 SI MM NOT_NAMED 1892-01-10 12:00:00 TS -11.3000 55.4000 main 627 607 _________O____ -1 -11.3000 55.4000 TC 4 248
1892010S11056 1892 2 SI MM NOT_NAMED 1892-01-10 15:00:00 TS -11.3500 55.2350 main 607 593 _________P____ -1 -11.3500 55.2350 TC 3 251
1892010S11056 1892 2 SI MM NOT_NAMED 1892-01-10 18:00:00 TS -11.4000 55.1000 main 593 579 _________O____ -1 -11.4000 55.1000 TC 3 239
1892010S11056 1892 2 SI MM NOT_NAMED 1892-01-10 21:00:00 TS -11.4850 55.0075 main 579 565 _________P____ -1 -11.4850 55.0075 TC 3 225
1892010S11056 1892 2 SI MM NOT_NAMED 1892-01-11 00:00:00 TS -11.6000 54.9000 main 565 541 _________O____ -1 -11.6000 54.9000 TC 4 229
1892010S11056 1892 2 SI MM NOT_NAMED 1892-01-11 03:00:00 TS -11.7350 54.7150 main 541 514 _________P____ -1 -11.7350 54.7150 TC 5 232
1892010S11056 1892 2 SI MM NOT_NAMED 1892-01-11 06:00:00 TS -11.9000 54.5000 main 514 488 _________O____ -1 -11.9000 54.5000 TC 5 228
1892010S11056 1892 2 SI MM NOT_NAMED 1892-01-11 09:00:00 TS -12.0925 54.3075 main 488 461 _________P____ -1 -12.0925 54.3075 TC 6 224
1892010S11056 1892 2 SI MM NOT_NAMED 1892-01-11 12:00:00 TS -12.3000 54.1000 main 461 434 _________O____ -1 -12.3000 54.1000 TC 6 228
1892010S11056 1892 2 SI MM NOT_NAMED 1892-01-11 15:00:00 TS -12.4925 53.8500 main 424 397 _________P____ -1 -12.4925 53.8500 TC 6 231
1892010S11056 1892 2 SI MM NOT_NAMED 1892-01-11 18:00:00 TS -12.7000 53.6000 main 397 371 _________O____ -1 -12.7000 53.6000 TC 6 225
1892010S11056 1892 2 SI MM NOT_NAMED 1892-01-11 21:00:00 TS -12.9500 53.3850 main 371 342 _________P____ -1 -12.9500 53.3850 TC 6 218
1892010S11056 1892 2 SI MM NOT_NAMED 1892-01-12 00:00:00 TS -13.2000 53.2000 main 342 327 _________O____ -1 -13.2000 53.2000 TC 6 216
1892010S11056 1892 2 SI MM NOT_NAMED 1892-01-12 03:00:00 TS -13.4075 53.0424 main 316 303 _________P____ -1 -13.4075 53.0424 TC 5 216
1892010S11056 1892 2 SI MM NOT_NAMED 1892-01-12 06:00:00 TS -13.6000 52.9000 main 303 291 _________O____ -1 -13.6000 52.9000 TC 5 216
1892010S11056 1892 2 SI MM NOT_NAMED 1892-01-12 09:00:00 TS -13.8000 52.7500 main 280 262 _________P____ -1 -13.8000 52.7500 TC 5 216
1892010S11056 1892 2 SI MM NOT_NAMED 1892-01-12 12:00:00 TS -14.0000 52.6000 main 262 242 _________O____ -1 -14.0000 52.6000 TC 5 217
1892010S11056 1892 2 SI MM NOT_NAMED 1892-01-12 15:00:00 TS -14.2000 52.4425 main 233 213 _________P____ -1 -14.2000 52.4425 TC 5 216
1892010S11056 1892 2 SI MM NOT_NAMED 1892-01-12 18:00:00 TS -14.4000 52.3000 main 213 194 _________O____ -1 -14.4000 52.3000 TC 4 212
1892010S11056 1892 2 SI MM NOT_NAMED 1892-01-12 21:00:00 TS -14.5625 52.2073 main 194 177 _________P____ -1 -14.5625 52.2073 TC 4 206
1892010S11056 1892 2 SI MM NOT_NAMED 1892-01-13 00:00:00 TS -14.8000 52.1000 main 177 150 _________O____ -1 -14.8000 52.1000 TC 7 204
1892010S11056 1892 2 SI MM NOT_NAMED 1892-01-13 03:00:00 TS -15.2050 51.9150 main 150 130 _________P____ -1 -15.2050 51.9150 TC 10 203
1892010S11056 1892 2 SI MM NOT_NAMED 1892-01-13 06:00:00 TS -15.7000 51.7000 main 132 125 _________O____ -1 -15.7000 51.7000 TC 11 203
1892010S11056 1892 2 SI MM NOT_NAMED 1892-01-13 09:00:00 TS -16.1850 51.4925 main 135 130 _________P____ -1 -16.1850 51.4925 TC 11 201
1892010S11056 1892 2 SI MM NOT_NAMED 1892-01-13 12:00:00 TS -16.7000 51.3000 main 141 139 _________O____ -1 -16.7000 51.3000 TC 11 198
1892010S11056 1892 2 SI MM NOT_NAMED 1892-01-13 15:00:00 TS -17.2350 51.1275 main 145 145 _________P____ -1 -17.2350 51.1275 TC 11 195
1892010S11056 1892 2 SI MM NOT_NAMED 1892-01-13 18:00:00 TS -17.8000 51.0000 main 159 158 _________O____ -1 -17.8000 51.0000 TC 12 189
1892010S11056 1892 2 SI MM NOT_NAMED 1892-01-13 21:00:00 TS -18.4150 50.9274 main 159 159 _________P____ -1 -18.4150 50.9274 TC 12 185
1892010S11056 1892 2 SI MM NOT_NAMED 1892-01-14 00:00:00 TS -19.0000 50.9000 main 181 181 _________O____ -1 -19.0000 50.9000 TC 11 183
1892010S11056 1892 2 SI MM NOT_NAMED 1892-01-14 03:00:00 TS -19.4800 50.8850 main 197 197 _________P____ -1 -19.4800 50.8850 TC 9 0
1892010S11056 1892 2 SI MM NOT_NAMED 1892-01-14 06:00:00 TS -19.9000 50.9000 main 213 213 _________O____ -1 -19.9000 50.9000 TC 8 177
1892010S11056 1892 2 SI MM NOT_NAMED 1892-01-14 09:00:00 TS -20.3075 50.9425 main 221 221 _________P____ -1 -20.3075 50.9425 TC 8 173
1892010S11056 1892 2 SI MM NOT_NAMED 1892-01-14 12:00:00 TS -20.7000 51.0000 main 242 242 _________O____ -1 -20.7000 51.0000 TC 8 173
1892010S11056 1892 2 SI MM NOT_NAMED 1892-01-14 15:00:00 TS -21.1000 51.0500 main 269 269 _________P____ -1 -21.1000 51.0500 TC 8 173
1892010S11056 1892 2 SI MM NOT_NAMED 1892-01-14 18:00:00 TS -21.5000 51.1000 main 285 285 _________O____ -1 -21.5000 51.1000 TC 8 173
1892010S11056 1892 2 SI MM NOT_NAMED 1892-01-14 21:00:00 TS -21.9075 51.1426 main 294 294 _________P____ -1 -21.9075 51.1426 TC 8 174
1892010S11056 1892 2 SI MM NOT_NAMED 1892-01-15 00:00:00 TS -22.3000 51.2000 main 314 314 _________O____ -1 -22.3000 51.2000 TC 8 170
1892010S11056 1892 2 SI MM NOT_NAMED 1892-01-15 03:00:00 TS -22.6575 51.2925 main 334 334 _________P____ -1 -22.6575 51.2925 TC 7 165
1892010S11056 1892 2 SI MM NOT_NAMED 1892-01-15 06:00:00 TS -23.0000 51.4000 main 355 355 _________O____ -1 -23.0000 51.4000 TC 7 165
1892010S11056 1892 2 SI MM NOT_NAMED 1892-01-15 09:00:00 TS -23.3575 51.4926 main 381 381 _________P____ -1 -23.3575 51.4926 TC 7 165
1892010S11056 1892 2 SI MM NOT_NAMED 1892-01-15 12:00:00 TS -23.7000 51.6000 main 398 398 _________O____ -1 -23.7000 51.6000 TC 7 161
1892010S11056 1892 2 SI MM NOT_NAMED 1892-01-15 15:00:00 TS -24.0150 51.7425 main 412 412 _________P____ -1 -24.0150 51.7425 TC 7 155
1892010S11056 1892 2 SI MM NOT_NAMED 1892-01-15 18:00:00 TS -24.3000 51.9000 main 438 438 _________O____ -1 -24.3000 51.9000 TC 6 152
1892010S11056 1892 2 SI MM NOT_NAMED 1892-01-15 21:00:00 TS -24.5575 52.0524 main 466 466 _________P____ -1 -24.5575 52.0524 TC 6 151
1892010S11056 1892 2 SI MM NOT_NAMED 1892-01-16 00:00:00 TS -24.8000 52.2000 main 482 _________O____ -1 -24.8000 52.2000 TC 6 151

About IBTrACS Database

This database is a web-friendly format of International Best Track Archive for Climate Stewardship (IBTrACS), a global best track data archive curated by NOAA dating back to 1842.

Updated: 2021-12-03